Time;durP1;ratioP1;P1;durP2;ratioP2;P2;SDS_P1;SDS_P2;PMS_P1;PMS_P2;Temp;Humidity;BMP_temperature;BMP_pressure;BME280_temperature;BME280_humidity;BME280_pressure;Samples;Min_cycle;Max_cycle;Signal;HPM_P1;HPM_P2
2022/05/01 00:02:07;;;;;;;14.98;13.43;;;;;;;;;;4976805;28;20038;-82
2022/05/01 00:04:35;;;;;;;13.35;12.15;;;;;;;;;;4995425;28;20135;-81
2022/05/01 00:07:04;;;;;;;15.98;14.40;;;;;;;;;;4991453;28;20050;-82
2022/05/01 00:09:31;;;;;;;12.40;11.10;;;;;;;;;;4994451;28;20738;-81
2022/05/01 00:11:59;;;;;;;14.63;13.32;;;;;;;;;;4975405;28;20764;-81
2022/05/01 00:14:27;;;;;;;14.93;13.43;;;;;;;;;;4992589;28;20074;-81
2022/05/01 00:16:55;;;;;;;14.65;13.25;;;;;;;;;;4959432;28;20789;-81
2022/05/01 00:19:23;;;;;;;14.63;13.43;;;;;;;;;;4995168;28;20046;-80
2022/05/01 00:22:10;;;;;;;14.32;13.07;;;;;;;;;;4971036;28;20100;-79
2022/05/01 00:24:37;;;;;;;15.85;14.13;;;;;;;;;;4974322;28;20417;-80
2022/05/01 00:27:08;;;;;;;16.02;14.38;;;;;;;;;;4993059;28;20811;-80
2022/05/01 00:29:36;;;;;;;14.90;13.50;;;;;;;;;;4991598;28;20050;-80
2022/05/01 00:32:05;;;;;;;14.32;13.02;;;;;;;;;;4989306;28;20409;-79
2022/05/01 00:37:23;;;;;;;15.25;13.85;;;;;;;;;;4975558;28;20261;-80
2022/05/01 00:39:52;;;;;;;14.93;13.52;;;;;;;;;;4974464;28;20483;-81
2022/05/01 00:42:23;;;;;;;16.02;14.52;;;;;;;;;;4993702;28;20042;-80
2022/05/01 00:44:52;;;;;;;16.77;15.35;;;;;;;;;;4985506;28;20117;-81
2022/05/01 00:47:21;;;;;;;15.80;14.40;;;;;;;;;;4997792;28;20054;-81
2022/05/01 00:49:50;;;;;;;14.40;13.07;;;;;;;;;;4997269;28;20046;-81
2022/05/01 00:52:25;;;;;;;13.82;12.63;;;;;;;;;;4970291;28;20099;-81
2022/05/01 00:54:53;;;;;;;16.40;14.85;;;;;;;;;;4970963;28;20061;-81
2022/05/01 00:57:24;;;;;;;17.65;15.98;;;;;;;;;;4973422;28;20269;-82
2022/05/01 00:59:52;;;;;;;13.87;12.67;;;;;;;;;;4993769;28;20573;-81
2022/05/01 01:02:20;;;;;;;16.92;15.18;;;;;;;;;;4960300;28;20065;-81
2022/05/01 01:04:48;;;;;;;16.35;14.85;;;;;;;;;;4994360;28;20046;-81
2022/05/01 01:07:15;;;;;;;17.05;15.45;;;;;;;;;;4991858;28;20046;-80
2022/05/01 01:09:42;;;;;;;17.05;15.32;;;;;;;;;;4977365;28;20061;-81
2022/05/01 01:15:10;;;;;;;18.48;16.77;;;;;;;;;;4994701;28;20046;-81
2022/05/01 01:17:41;;;;;;;17.48;14.82;;;;;;;;;;4973261;28;20495;-82
2022/05/01 01:20:16;;;;;;;17.13;15.38;;;;;;;;;;4941302;28;20034;-81
2022/05/01 01:22:47;;;;;;;20.00;17.95;;;;;;;;;;4963336;28;20544;-82
2022/05/01 01:25:16;;;;;;;20.05;18.25;;;;;;;;;;4997337;28;20041;-82
2022/05/01 01:27:43;;;;;;;19.55;17.58;;;;;;;;;;4994811;28;20044;-82
2022/05/01 01:32:57;;;;;;;21.33;19.10;;;;;;;;;;4994012;28;20137;-81
2022/05/01 01:35:26;;;;;;;20.00;18.13;;;;;;;;;;4958511;28;20049;-82
2022/05/01 01:37:55;;;;;;;20.70;18.80;;;;;;;;;;4957797;28;20050;-82
2022/05/01 01:40:23;;;;;;;20.75;18.85;;;;;;;;;;4992184;28;20070;-83
2022/05/01 01:42:58;;;;;;;19.42;17.70;;;;;;;;;;4977003;28;20840;-82
2022/05/01 01:45:28;;;;;;;19.83;17.75;;;;;;;;;;4985547;28;20056;-82
2022/05/01 01:48:13;;;;;;;20.77;18.98;;;;;;;;;;4974996;28;20065;-82
2022/05/01 01:50:44;;;;;;;19.25;17.45;;;;;;;;;;4988194;28;20101;-81
2022/05/01 01:53:13;;;;;;;20.58;18.52;;;;;;;;;;4989990;28;20045;-83
2022/05/01 01:55:58;;;;;;;21.88;19.58;;;;;;;;;;4974410;28;20042;-82
2022/05/01 01:58:27;;;;;;;20.88;18.88;;;;;;;;;;4992153;28;20967;-82
2022/05/01 02:00:55;;;;;;;22.17;20.08;;;;;;;;;;4977217;28;20157;-82
2022/05/01 02:03:23;;;;;;;21.38;19.13;;;;;;;;;;5004305;28;20050;-82
2022/05/01 02:05:51;;;;;;;22.75;20.52;;;;;;;;;;4987293;28;20054;-82
2022/05/01 02:08:19;;;;;;;21.90;19.90;;;;;;;;;;4992262;28;20038;-82
2022/05/01 02:10:47;;;;;;;21.65;19.58;;;;;;;;;;4985555;28;20435;-81
2022/05/01 02:13:14;;;;;;;22.48;20.33;;;;;;;;;;4987215;28;20042;-82
2022/05/01 02:15:42;;;;;;;23.77;21.48;;;;;;;;;;4992301;28;20555;-82
2022/05/01 02:18:09;;;;;;;22.35;20.15;;;;;;;;;;4973260;28;20717;-82
2022/05/01 02:23:26;;;;;;;22.30;20.10;;;;;;;;;;4969089;28;20070;-82
2022/05/01 02:25:54;;;;;;;24.58;22.00;;;;;;;;;;4985968;28;20148;-82
2022/05/01 02:28:26;;;;;;;23.25;20.88;;;;;;;;;;4987803;28;20125;-83
2022/05/01 02:30:56;;;;;;;23.73;21.13;;;;;;;;;;4969339;28;20035;-83
2022/05/01 02:33:25;;;;;;;22.90;20.63;;;;;;;;;;4988816;28;21005;-82
2022/05/01 02:35:52;;;;;;;22.40;20.17;;;;;;;;;;4986820;28;20061;-83
2022/05/01 02:38:20;;;;;;;23.65;21.30;;;;;;;;;;4952854;28;20245;-82
2022/05/01 02:40:50;;;;;;;23.73;21.33;;;;;;;;;;4954483;28;20373;-82
2022/05/01 02:43:17;;;;;;;20.92;19.02;;;;;;;;;;4986629;28;20070;-82
2022/05/01 02:45:45;;;;;;;25.42;22.73;;;;;;;;;;4986940;28;20182;-83
2022/05/01 02:48:12;;;;;;;21.05;19.08;;;;;;;;;;4972356;28;20110;-82
2022/05/01 02:50:40;;;;;;;22.17;20.08;;;;;;;;;;4989148;28;20041;-82
2022/05/01 02:53:08;;;;;;;17.85;16.27;;;;;;;;;;4986989;28;20043;-82
2022/05/01 02:55:37;;;;;;;16.00;14.68;;;;;;;;;;4991880;28;20050;-81
2022/05/01 02:58:07;;;;;;;18.25;16.75;;;;;;;;;;4985608;28;20089;-82
2022/05/01 03:00:34;;;;;;;19.67;17.88;;;;;;;;;;4987762;28;20042;-82
2022/05/01 03:03:01;;;;;;;20.55;18.65;;;;;;;;;;4970152;28;20050;-82
2022/05/01 03:05:30;;;;;;;19.88;17.98;;;;;;;;;;4972735;28;20046;-82
2022/05/01 03:07:57;;;;;;;18.10;16.50;;;;;;;;;;4993218;28;20058;-82
2022/05/01 03:10:26;;;;;;;18.83;17.15;;;;;;;;;;4979038;28;20041;-83
2022/05/01 03:15:34;;;;;;;18.83;17.10;;;;;;;;;;4945269;28;20057;-87
2022/05/01 03:23:38;;;;;;;17.55;15.95;;;;;;;;;;4929530;28;20078;-86
2022/05/01 03:26:05;;;;;;;16.70;15.13;;;;;;;;;;4948373;28;20439;-86
2022/05/01 03:28:33;;;;;;;16.77;15.27;;;;;;;;;;4930764;28;20047;-86
2022/05/01 03:31:00;;;;;;;13.70;12.45;;;;;;;;;;4914480;28;20051;-86
2022/05/01 03:33:28;;;;;;;15.32;14.07;;;;;;;;;;4917031;28;20439;-86
2022/05/01 03:35:57;;;;;;;17.55;15.75;;;;;;;;;;4929409;28;20057;-85
2022/05/01 03:38:25;;;;;;;16.67;15.18;;;;;;;;;;4913529;28;20468;-85
2022/05/01 03:40:52;;;;;;;16.90;15.38;;;;;;;;;;4948713;28;20039;-85
2022/05/01 03:43:24;;;;;;;16.15;14.75;;;;;;;;;;4947949;28;20043;-85
2022/05/01 03:45:51;;;;;;;16.33;14.93;;;;;;;;;;4929663;28;20054;-86
2022/05/01 03:48:19;;;;;;;18.67;16.90;;;;;;;;;;4926385;28;20063;-85
2022/05/01 03:50:46;;;;;;;17.48;15.77;;;;;;;;;;4932111;28;20661;-85
2022/05/01 03:53:15;;;;;;;14.57;13.38;;;;;;;;;;4929187;28;20043;-84
2022/05/01 03:55:42;;;;;;;17.02;15.43;;;;;;;;;;4947350;28;20049;-84
2022/05/01 03:58:09;;;;;;;18.45;16.75;;;;;;;;;;4946127;28;20138;-84
2022/05/01 04:00:37;;;;;;;18.08;16.38;;;;;;;;;;4947073;28;20050;-85
2022/05/01 04:03:04;;;;;;;17.55;16.00;;;;;;;;;;4947189;28;20063;-85
2022/05/01 04:05:33;;;;;;;18.67;16.88;;;;;;;;;;4930331;28;20427;-85
2022/05/01 04:08:01;;;;;;;18.75;17.00;;;;;;;;;;4947906;28;20212;-84
2022/05/01 04:10:28;;;;;;;20.42;18.42;;;;;;;;;;4946133;28;20831;-85
2022/05/01 04:12:55;;;;;;;18.58;16.88;;;;;;;;;;4947248;28;20051;-84
2022/05/01 04:15:23;;;;;;;19.45;17.55;;;;;;;;;;4914239;28;20051;-84
2022/05/01 04:17:50;;;;;;;19.25;17.30;;;;;;;;;;4929244;28;20070;-84
2022/05/01 04:20:18;;;;;;;21.58;19.40;;;;;;;;;;4947480;28;20054;-84
2022/05/01 04:22:46;;;;;;;19.17;17.25;;;;;;;;;;4927425;28;20432;-84
2022/05/01 04:25:21;;;;;;;15.45;14.05;;;;;;;;;;4915103;28;20790;-84
2022/05/01 04:27:51;;;;;;;19.67;17.85;;;;;;;;;;4930475;28;20141;-84
2022/05/01 04:30:20;;;;;;;14.80;13.30;;;;;;;;;;4931111;28;20055;-83
2022/05/01 04:32:54;;;;;;;14.50;13.23;;;;;;;;;;4914086;28;20043;-84
2022/05/01 04:35:22;;;;;;;16.23;14.73;;;;;;;;;;4930003;28;20191;-84
2022/05/01 04:37:50;;;;;;;12.98;11.88;;;;;;;;;;4912024;28;20530;-84
2022/05/01 04:40:18;;;;;;;14.90;13.55;;;;;;;;;;4928702;28;20051;-85
2022/05/01 04:42:47;;;;;;;17.83;16.23;;;;;;;;;;4928543;28;20062;-85
2022/05/01 04:45:14;;;;;;;16.48;14.95;;;;;;;;;;4928842;28;20428;-85
2022/05/01 04:47:41;;;;;;;19.33;17.55;;;;;;;;;;4946790;28;20043;-84
2022/05/01 04:50:09;;;;;;;17.77;16.15;;;;;;;;;;4928516;28;20051;-84
2022/05/01 04:52:37;;;;;;;18.98;17.08;;;;;;;;;;4926684;28;20058;-84
2022/05/01 04:55:05;;;;;;;19.92;17.77;;;;;;;;;;4947084;28;20038;-84
2022/05/01 04:57:33;;;;;;;19.75;17.85;;;;;;;;;;4927549;28;20157;-85
2022/05/01 05:00:00;;;;;;;18.98;17.23;;;;;;;;;;4943238;28;20070;-84
2022/05/01 05:02:36;;;;;;;19.15;17.45;;;;;;;;;;4924426;28;20476;-84
2022/05/01 05:05:04;;;;;;;18.52;16.77;;;;;;;;;;4925396;28;20417;-85
2022/05/01 05:07:33;;;;;;;19.25;17.45;;;;;;;;;;4931521;28;20047;-84
2022/05/01 05:10:05;;;;;;;19.02;17.13;;;;;;;;;;4917060;28;20047;-84
2022/05/01 05:12:33;;;;;;;18.90;17.10;;;;;;;;;;4926039;28;20050;-85
2022/05/01 05:15:01;;;;;;;19.48;17.45;;;;;;;;;;4923162;28;20043;-84
2022/05/01 05:17:31;;;;;;;16.13;14.60;;;;;;;;;;4911287;28;20031;-84
2022/05/01 05:19:59;;;;;;;19.55;17.75;;;;;;;;;;4943701;28;20062;-85
2022/05/01 05:22:27;;;;;;;19.55;17.75;;;;;;;;;;4916523;28;20055;-85
2022/05/01 05:24:57;;;;;;;18.95;17.08;;;;;;;;;;4925383;28;20876;-85
2022/05/01 05:27:28;;;;;;;19.42;17.65;;;;;;;;;;4943083;28;20055;-85
2022/05/01 05:29:56;;;;;;;19.40;17.60;;;;;;;;;;4912584;28;21085;-85
2022/05/01 05:32:26;;;;;;;20.10;18.20;;;;;;;;;;4923762;28;20043;-85
2022/05/01 05:34:53;;;;;;;18.83;17.23;;;;;;;;;;4925799;28;20039;-84
2022/05/01 05:37:21;;;;;;;20.40;18.40;;;;;;;;;;4944338;28;20039;-84
2022/05/01 05:39:49;;;;;;;19.80;18.00;;;;;;;;;;4928399;28;20082;-84
2022/05/01 05:42:18;;;;;;;20.15;18.30;;;;;;;;;;4927214;28;20051;-84
2022/05/01 05:44:45;;;;;;;19.30;17.52;;;;;;;;;;4926887;28;20051;-85
2022/05/01 05:47:12;;;;;;;19.08;17.38;;;;;;;;;;4926166;28;20118;-85
2022/05/01 05:49:40;;;;;;;20.42;18.50;;;;;;;;;;4944209;28;20066;-85
2022/05/01 05:52:07;;;;;;;21.02;18.88;;;;;;;;;;4927578;28;20209;-84
2022/05/01 05:54:35;;;;;;;15.95;14.55;;;;;;;;;;4943930;28;20570;-85
2022/05/01 05:57:02;;;;;;;19.55;17.77;;;;;;;;;;4943922;28;20122;-85
2022/05/01 05:59:30;;;;;;;20.33;18.50;;;;;;;;;;4945111;28;20081;-85
2022/05/01 06:02:00;;;;;;;20.20;18.30;;;;;;;;;;4932107;28;20047;-86
2022/05/01 06:04:29;;;;;;;19.77;18.05;;;;;;;;;;4910319;28;20055;-85
2022/05/01 06:06:57;;;;;;;20.38;18.25;;;;;;;;;;4958690;22;20051;31
2022/05/01 06:09:25;;;;;;;19.05;17.35;;;;;;;;;;4983169;28;20151;-82
2022/05/01 06:11:54;;;;;;;19.70;17.80;;;;;;;;;;4957006;28;20143;-82
2022/05/01 06:14:21;;;;;;;19.08;17.38;;;;;;;;;;4955380;28;20065;-81
2022/05/01 06:16:49;;;;;;;18.85;17.25;;;;;;;;;;4957179;28;20051;-83
2022/05/01 06:19:43;;;;;;;19.48;17.73;;;;;;;;;;4961310;28;20046;-82
2022/05/01 06:22:19;;;;;;;19.45;17.45;;;;;;;;;;4957811;28;20039;-82
2022/05/01 06:26:05;;;;;;;;;;;;;;;;;;;;;
2022/05/01 06:29:16;;;;;;;18.45;16.80;;;;;;;;;;4946588;28;20043;-81
2022/05/01 06:31:43;;;;;;;19.60;17.90;;;;;;;;;;4956077;28;20078;-81
2022/05/01 06:34:11;;;;;;;15.77;14.38;;;;;;;;;;4972757;28;20073;-81
2022/05/01 06:36:39;;;;;;;19.90;18.08;;;;;;;;;;4968887;28;20039;-81
2022/05/01 06:39:09;;;;;;;19.30;17.50;;;;;;;;;;4956756;28;20580;-81
2022/05/01 06:41:36;;;;;;;13.70;12.50;;;;;;;;;;4971942;28;20134;-81
2022/05/01 06:44:04;;;;;;;14.20;13.00;;;;;;;;;;4972920;28;20145;-81
2022/05/01 06:46:31;;;;;;;12.90;11.77;;;;;;;;;;4974271;28;20427;-82
2022/05/01 06:48:58;;;;;;;12.80;11.60;;;;;;;;;;4974080;28;20061;-81
2022/05/01 06:51:26;;;;;;;12.80;11.70;;;;;;;;;;4947901;28;20078;-81
2022/05/01 06:53:53;;;;;;;12.07;11.07;;;;;;;;;;4956697;28;20085;-82
2022/05/01 06:56:21;;;;;;;12.75;11.65;;;;;;;;;;4972587;28;20061;-81
2022/05/01 06:58:48;;;;;;;13.73;12.57;;;;;;;;;;4972088;28;20101;-81
2022/05/01 07:01:16;;;;;;;11.98;10.98;;;;;;;;;;4956169;28;20046;-81
2022/05/01 07:03:46;;;;;;;14.20;13.00;;;;;;;;;;4957283;28;20471;-82
2022/05/01 07:06:14;;;;;;;11.45;10.45;;;;;;;;;;4956171;28;20046;-82
2022/05/01 07:08:41;;;;;;;11.88;10.98;;;;;;;;;;4952063;28;20399;-81
2022/05/01 07:11:09;;;;;;;12.52;11.50;;;;;;;;;;4971489;28;20150;-82
2022/05/01 07:13:40;;;;;;;10.95;10.00;;;;;;;;;;4960496;28;20042;-81
2022/05/01 07:16:07;;;;;;;11.23;10.27;;;;;;;;;;4967703;28;20054;-81
2022/05/01 07:18:35;;;;;;;13.50;12.40;;;;;;;;;;4943751;28;20054;-81
2022/05/01 07:21:03;;;;;;;14.57;13.27;;;;;;;;;;4971718;28;20091;-81
2022/05/01 07:23:30;;;;;;;13.73;12.55;;;;;;;;;;4972313;28;20443;-81
2022/05/01 07:25:58;;;;;;;13.63;12.52;;;;;;;;;;4969162;28;20160;-82
2022/05/01 07:28:26;;;;;;;14.07;12.88;;;;;;;;;;4961955;28;20054;-81
2022/05/01 07:30:53;;;;;;;14.20;12.93;;;;;;;;;;4954116;28;20059;-82
2022/05/01 07:33:22;;;;;;;27.48;12.18;;;;;;;;;;4974007;28;20063;-81
2022/05/01 07:35:49;;;;;;;12.57;11.57;;;;;;;;;;4956962;28;20102;-80
2022/05/01 07:38:17;;;;;;;12.77;11.68;;;;;;;;;;4961400;28;20133;-81
2022/05/01 07:40:51;;;;;;;11.18;10.20;;;;;;;;;;4960375;28;20066;-81
2022/05/01 07:43:18;;;;;;;13.23;12.02;;;;;;;;;;4971077;28;20141;-82
2022/05/01 07:45:59;;;;;;;15.15;13.65;;;;;;;;;;4968521;28;20523;-81
2022/05/01 07:48:27;;;;;;;15.25;13.70;;;;;;;;;;4982580;28;20065;-81
2022/05/01 07:50:54;;;;;;;15.65;14.25;;;;;;;;;;4960383;28;20118;-81
2022/05/01 07:53:21;;;;;;;13.93;12.82;;;;;;;;;;4985034;28;20043;-80
2022/05/01 07:55:49;;;;;;;14.07;12.82;;;;;;;;;;4954408;28;20035;-81
2022/05/01 07:58:16;;;;;;;13.23;12.13;;;;;;;;;;4952472;28;20053;-81
2022/05/01 08:00:44;;;;;;;13.25;12.10;;;;;;;;;;4967974;28;20049;-80
2022/05/01 08:05:58;;;;;;;12.65;11.55;;;;;;;;;;4951909;28;20043;-81
2022/05/01 08:08:26;;;;;;;14.65;13.27;;;;;;;;;;4970166;28;20049;-79
2022/05/01 08:10:54;;;;;;;12.82;11.68;;;;;;;;;;4941609;28;20451;-80
2022/05/01 08:13:21;;;;;;;13.70;12.55;;;;;;;;;;4953961;28;20069;-79
2022/05/01 08:15:49;;;;;;;13.82;12.70;;;;;;;;;;4963960;28;20556;-80
2022/05/01 08:21:07;;;;;;;13.60;12.40;;;;;;;;;;4947207;28;20075;-79
2022/05/01 08:23:36;;;;;;;9.90;9.00;;;;;;;;;;4968219;28;20423;-80
2022/05/01 08:26:05;;;;;;;12.88;11.80;;;;;;;;;;4947552;28;20101;-79
2022/05/01 08:28:34;;;;;;;13.80;12.70;;;;;;;;;;4965585;28;20051;-78
2022/05/01 08:31:02;;;;;;;13.55;12.30;;;;;;;;;;4953498;28;20576;-80
2022/05/01 08:33:30;;;;;;;12.73;11.63;;;;;;;;;;4951949;28;20621;-79
2022/05/01 08:35:57;;;;;;;9.98;9.15;;;;;;;;;;4973657;28;20515;-81
2022/05/01 08:38:25;;;;;;;10.55;9.75;;;;;;;;;;4970984;28;20047;-80
2022/05/01 08:40:53;;;;;;;10.55;9.65;;;;;;;;;;4973966;28;20066;-80
2022/05/01 08:43:21;;;;;;;10.95;10.05;;;;;;;;;;4979554;28;20046;-79
2022/05/01 08:45:49;;;;;;;11.05;10.00;;;;;;;;;;4957405;28;20043;-81
2022/05/01 08:48:20;;;;;;;11.88;10.88;;;;;;;;;;4958718;28;20046;-79
2022/05/01 08:50:47;;;;;;;11.50;10.60;;;;;;;;;;4967730;28;20165;-79
2022/05/01 08:53:17;;;;;;;10.15;9.27;;;;;;;;;;4967206;28;20135;-80
2022/05/01 08:55:46;;;;;;;11.98;10.77;;;;;;;;;;4966881;28;20070;-80
2022/05/01 08:58:14;;;;;;;11.25;10.27;;;;;;;;;;4972421;28;20038;-79
2022/05/01 09:00:42;;;;;;;11.27;10.27;;;;;;;;;;4955356;28;20050;-80
2022/05/01 09:03:10;;;;;;;11.27;10.32;;;;;;;;;;4951212;28;20124;-77
2022/05/01 09:05:39;;;;;;;12.23;11.07;;;;;;;;;;4968137;28;20046;-78
2022/05/01 09:08:10;;;;;;;12.00;11.07;;;;;;;;;;4955754;28;20054;-79
2022/05/01 09:10:40;;;;;;;10.35;9.55;;;;;;;;;;4953451;28;20051;-80
2022/05/01 09:13:08;;;;;;;10.60;9.70;;;;;;;;;;4973533;28;20461;-80
2022/05/01 09:15:40;;;;;;;11.77;10.77;;;;;;;;;;4998275;22;20105;-82
2022/05/01 09:18:08;;;;;;;11.88;10.77;;;;;;;;;;4987508;28;21160;-83
2022/05/01 09:20:39;;;;;;;11.75;10.75;;;;;;;;;;4981103;28;20047;-82
2022/05/01 09:23:09;;;;;;;10.60;9.80;;;;;;;;;;4967875;28;20077;-82
2022/05/01 09:25:36;;;;;;;9.65;8.95;;;;;;;;;;4985177;28;20043;-82
2022/05/01 09:28:24;;;;;;;9.13;8.43;;;;;;;;;;4983340;28;20046;-81
2022/05/01 09:30:51;;;;;;;11.20;10.30;;;;;;;;;;4962305;28;20416;-81
2022/05/01 09:33:19;;;;;;;10.20;9.30;;;;;;;;;;4936039;28;20053;-82
2022/05/01 09:35:47;;;;;;;9.68;8.80;;;;;;;;;;4981745;28;20120;-82
2022/05/01 09:38:18;;;;;;;11.20;10.30;;;;;;;;;;4980448;28;20589;-82
2022/05/01 09:40:48;;;;;;;9.73;8.95;;;;;;;;;;4971086;28;20073;-82
2022/05/01 09:43:34;;;;;;;10.60;9.70;;;;;;;;;;4982268;28;20054;-81
2022/05/01 09:46:18;;;;;;;9.85;9.05;;;;;;;;;;4965234;28;20070;-82
2022/05/01 09:49:09;;;;;;;9.70;8.90;;;;;;;;;;4986187;28;20054;-82
2022/05/01 09:51:38;;;;;;;9.63;8.77;;;;;;;;;;4985093;28;20336;-82
2022/05/01 09:54:06;;;;;;;10.02;9.23;;;;;;;;;;4984136;28;20521;-82
2022/05/01 09:56:44;;;;;;;10.43;9.52;;;;;;;;;;4966721;28;20542;-83
2022/05/01 09:59:12;;;;;;;9.18;8.48;;;;;;;;;;4981752;28;20066;-83
2022/05/01 10:01:40;;;;;;;10.48;9.60;;;;;;;;;;4965145;28;20500;-82
2022/05/01 10:04:08;;;;;;;9.77;8.95;;;;;;;;;;4981052;28;20074;-81
2022/05/01 10:06:37;;;;;;;8.40;7.75;;;;;;;;;;4982024;28;20644;-81
2022/05/01 10:09:04;;;;;;;9.30;8.45;;;;;;;;;;4934519;28;20616;-81
2022/05/01 10:11:32;;;;;;;9.60;8.90;;;;;;;;;;4963739;28;20046;-81
2022/05/01 10:14:00;;;;;;;9.07;8.38;;;;;;;;;;4971060;28;20043;-83
2022/05/01 10:16:27;;;;;;;9.00;8.20;;;;;;;;;;4981528;28;20049;-81
2022/05/01 10:18:56;;;;;;;11.07;8.07;;;;;;;;;;4981191;28;20043;-80
2022/05/01 10:21:46;;;;;;;9.02;8.25;;;;;;;;;;4982975;28;20045;-81
2022/05/01 10:24:14;;;;;;;8.95;8.05;;;;;;;;;;4965101;28;20516;-81
2022/05/01 10:26:58;;;;;;;9.23;8.52;;;;;;;;;;4982838;28;20042;-81
2022/05/01 10:29:25;;;;;;;9.40;8.63;;;;;;;;;;4980847;28;20085;-81
2022/05/01 10:34:57;;;;;;;9.13;8.43;;;;;;;;;;4965621;28;20043;-81
2022/05/01 10:37:24;;;;;;;8.20;7.43;;;;;;;;;;4984536;28;20038;-81
2022/05/01 10:39:52;;;;;;;9.95;9.00;;;;;;;;;;4986771;28;20046;-81
2022/05/01 10:42:55;;;;;;;8.82;8.02;;;;;;;;;;4956991;28;20106;-80
2022/05/01 10:45:22;;;;;;;9.02;8.25;;;;;;;;;;4910641;29;20048;-80
2022/05/01 10:47:54;;;;;;;10.13;9.25;;;;;;;;;;4973243;28;20266;-81
2022/05/01 10:50:28;;;;;;;8.60;8.00;;;;;;;;;;4972574;28;20082;-84
2022/05/01 10:53:06;;;;;;;9.10;7.22;;;;;;;;;;5002161;28;20354;-82
2022/05/01 10:55:44;;;;;;;8.55;7.85;;;;;;;;;;4992923;28;20110;-79
2022/05/01 10:58:18;;;;;;;8.95;8.27;;;;;;;;;;4967663;28;20050;-81
2022/05/01 11:00:46;;;;;;;8.80;8.07;;;;;;;;;;4992300;28;20046;-81
2022/05/01 11:03:27;;;;;;;8.18;7.47;;;;;;;;;;4987328;28;20050;-84
2022/05/01 11:06:04;;;;;;;8.80;7.90;;;;;;;;;;4984749;28;20516;-80
2022/05/01 11:08:34;;;;;;;9.20;8.40;;;;;;;;;;4965816;28;20160;-81
2022/05/01 11:11:02;;;;;;;8.80;8.00;;;;;;;;;;4982217;28;20149;-81
2022/05/01 11:13:36;;;;;;;8.50;7.90;;;;;;;;;;4980303;28;20050;-81
2022/05/01 11:16:05;;;;;;;7.43;6.88;;;;;;;;;;4985073;28;20267;-80
2022/05/01 11:18:35;;;;;;;9.50;8.70;;;;;;;;;;4988018;28;20051;-79
2022/05/01 11:21:21;;;;;;;7.80;7.20;;;;;;;;;;4986338;28;20052;-81
2022/05/01 11:23:58;;;;;;;7.03;6.53;;;;;;;;;;4971166;28;20061;-82
2022/05/01 11:26:26;;;;;;;7.75;7.18;;;;;;;;;;4970285;28;20479;-82
2022/05/01 11:28:54;;;;;;;8.63;7.93;;;;;;;;;;4971837;28;20057;-81
2022/05/01 11:31:37;;;;;;;8.10;7.50;;;;;;;;;;4966262;28;20105;-84
2022/05/01 11:34:17;;;;;;;9.65;8.85;;;;;;;;;;4988953;28;20507;-81
2022/05/01 11:36:51;;;;;;;9.80;9.10;;;;;;;;;;4990096;28;20038;-83
2022/05/01 11:39:18;;;;;;;10.18;9.25;;;;;;;;;;4957980;28;20038;-81
2022/05/01 11:41:48;;;;;;;9.00;8.30;;;;;;;;;;4973289;28;20342;-83
2022/05/01 11:44:19;;;;;;;10.00;9.20;;;;;;;;;;4978449;28;20038;-81
2022/05/01 11:46:47;;;;;;;9.57;8.88;;;;;;;;;;4953933;28;20543;-79
2022/05/01 11:49:15;;;;;;;9.45;8.73;;;;;;;;;;4963096;28;20069;-80
2022/05/01 11:51:44;;;;;;;8.55;7.95;;;;;;;;;;4989550;28;20050;-80
2022/05/01 11:54:16;;;;;;;9.45;8.75;;;;;;;;;;4983978;28;20043;-79
2022/05/01 12:02:26;;;;;;;8.25;7.65;;;;;;;;;;4982300;28;20038;-82
2022/05/01 12:04:58;;;;;;;9.50;8.70;;;;;;;;;;4986178;28;20073;-79
2022/05/01 12:07:26;;;;;;;8.38;7.75;;;;;;;;;;4982302;28;20148;-83
2022/05/01 12:09:54;;;;;;;8.00;7.22;;;;;;;;;;4985538;28;20039;-80
2022/05/01 12:12:27;;;;;;;7.40;6.90;;;;;;;;;;4982193;28;20048;-80
2022/05/01 12:14:55;;;;;;;9.30;8.40;;;;;;;;;;4980943;28;20424;-81
2022/05/01 12:17:22;;;;;;;8.63;7.93;;;;;;;;;;4977827;28;20048;-81
2022/05/01 12:19:55;;;;;;;9.35;8.55;;;;;;;;;;4982075;28;20038;-80
2022/05/01 12:22:24;;;;;;;8.80;8.10;;;;;;;;;;4984871;28;20050;-80
2022/05/01 12:24:54;;;;;;;9.27;8.57;;;;;;;;;;4987149;28;20297;-79
2022/05/01 12:27:25;;;;;;;8.02;7.40;;;;;;;;;;4960304;28;20038;-80
2022/05/01 12:29:53;;;;;;;8.52;7.72;;;;;;;;;;4982287;28;20085;-82
2022/05/01 12:32:21;;;;;;;8.18;7.53;;;;;;;;;;4964063;28;20721;-77
2022/05/01 12:34:48;;;;;;;8.48;7.75;;;;;;;;;;4976518;28;20153;-81
2022/05/01 12:37:21;;;;;;;7.75;7.15;;;;;;;;;;4965246;28;20048;-81
2022/05/01 12:40:03;;;;;;;8.15;7.50;;;;;;;;;;4958191;28;20596;-78
2022/05/01 12:45:35;;;;;;;8.98;7.68;;;;;;;;;;4984539;28;20074;-81
2022/05/01 12:48:03;;;;;;;9.50;8.75;;;;;;;;;;4982596;28;20077;-80
2022/05/01 12:50:32;;;;;;;9.25;8.55;;;;;;;;;;4960358;28;20725;-82
2022/05/01 12:53:02;;;;;;;8.18;7.57;;;;;;;;;;4956940;28;20128;-81
2022/05/01 12:55:34;;;;;;;8.32;7.72;;;;;;;;;;4984593;28;20050;-81
2022/05/01 12:58:03;;;;;;;7.40;6.70;;;;;;;;;;4984146;28;20121;-81
2022/05/01 13:00:36;;;;;;;7.45;6.95;;;;;;;;;;4983455;28;20039;-81
2022/05/01 13:03:24;;;;;;;7.50;6.97;;;;;;;;;;4985693;28;20038;-82
2022/05/01 13:05:56;;;;;;;7.55;6.97;;;;;;;;;;4968167;28;20157;-82
2022/05/01 13:08:24;;;;;;;8.07;7.38;;;;;;;;;;4985625;28;20108;-80
2022/05/01 13:11:10;;;;;;;7.78;7.18;;;;;;;;;;4984418;28;20043;-81
2022/05/01 13:13:53;;;;;;;7.68;7.15;;;;;;;;;;4983608;28;20054;-81
2022/05/01 13:16:23;;;;;;;6.50;6.10;;;;;;;;;;4939635;28;20098;-81
2022/05/01 13:18:51;;;;;;;7.80;7.20;;;;;;;;;;4971179;28;20030;-81
2022/05/01 13:21:19;;;;;;;6.72;6.22;;;;;;;;;;4985005;28;20041;-81
2022/05/01 13:23:51;;;;;;;6.05;5.55;;;;;;;;;;4953765;28;20046;-81
2022/05/01 13:27:02;;;;;;;6.60;6.13;;;;;;;;;;4990991;28;20039;-81
2022/05/01 13:29:32;;;;;;;6.20;5.70;;;;;;;;;;4990900;28;20042;-80
2022/05/01 13:32:11;;;;;;;6.20;5.70;;;;;;;;;;4984542;28;20055;-84
2022/05/01 13:34:42;;;;;;;6.93;5.40;;;;;;;;;;4998028;28;20047;-82
2022/05/01 13:37:10;;;;;;;5.85;5.35;;;;;;;;;;4996177;28;20424;-79
2022/05/01 13:45:10;;;;;;;4.63;4.32;;;;;;;;;;4982313;28;20042;-82
2022/05/01 13:47:38;;;;;;;5.32;4.93;;;;;;;;;;4982185;28;20428;-82
2022/05/01 13:50:05;;;;;;;4.78;4.47;;;;;;;;;;4986899;28;20078;-81
2022/05/01 13:52:33;;;;;;;5.47;5.03;;;;;;;;;;4986917;28;20057;-81
2022/05/01 13:55:00;;;;;;;4.38;4.18;;;;;;;;;;4987912;28;20129;-81
2022/05/01 13:57:28;;;;;;;4.28;4.03;;;;;;;;;;4986068;28;20133;-82
2022/05/01 13:59:56;;;;;;;4.40;4.10;;;;;;;;;;4985656;28;20054;-80
2022/05/01 14:02:24;;;;;;;4.63;4.20;;;;;;;;;;4978796;28;20049;-81
2022/05/01 14:04:51;;;;;;;4.32;4.03;;;;;;;;;;4969438;28;20050;-80
2022/05/01 14:07:19;;;;;;;5.82;5.43;;;;;;;;;;4987722;28;20340;-82
2022/05/01 14:09:46;;;;;;;5.35;4.90;;;;;;;;;;4969156;28;20125;-81
2022/05/01 14:12:15;;;;;;;4.80;4.50;;;;;;;;;;4982610;28;20394;-81
2022/05/01 14:14:43;;;;;;;5.55;5.15;;;;;;;;;;4971728;28;20453;-81
2022/05/01 14:17:10;;;;;;;4.97;4.60;;;;;;;;;;4977816;28;20039;-82
2022/05/01 14:19:39;;;;;;;6.93;5.07;;;;;;;;;;4969335;28;20053;-80
2022/05/01 14:22:07;;;;;;;5.18;4.78;;;;;;;;;;4980970;28;20057;-81
2022/05/01 14:24:50;;;;;;;6.47;5.97;;;;;;;;;;4974102;28;20053;-83
2022/05/01 14:27:19;;;;;;;5.68;5.30;;;;;;;;;;4991350;28;20049;-82
2022/05/01 14:29:46;;;;;;;5.80;5.40;;;;;;;;;;4994125;28;20065;-83
2022/05/01 14:32:25;;;;;;;6.55;6.00;;;;;;;;;;4977380;28;20082;-82
2022/05/01 14:35:00;;;;;;;6.97;6.38;;;;;;;;;;4973868;28;20039;-82
2022/05/01 14:37:27;;;;;;;6.70;6.20;;;;;;;;;;4974472;28;20050;-82
2022/05/01 14:39:58;;;;;;;6.30;5.90;;;;;;;;;;4977144;28;20050;-82
2022/05/01 14:42:31;;;;;;;6.85;6.45;;;;;;;;;;4994425;28;20066;-83
2022/05/01 14:45:05;;;;;;;5.60;5.20;;;;;;;;;;4990567;28;20042;-81
2022/05/01 14:47:41;;;;;;;5.05;4.65;;;;;;;;;;4974297;28;20461;-82
2022/05/01 14:50:10;;;;;;;6.00;5.45;;;;;;;;;;4970426;28;20047;-82
2022/05/01 14:52:39;;;;;;;5.43;5.03;;;;;;;;;;4983378;28;20076;-82
2022/05/01 14:55:15;;;;;;;5.43;5.03;;;;;;;;;;4983208;28;20047;-82
2022/05/01 14:57:44;;;;;;;5.28;4.88;;;;;;;;;;4961345;28;20511;-81
2022/05/01 15:08:41;;;;;;;6.20;5.70;;;;;;;;;;4967960;28;20131;-81
2022/05/01 15:11:10;;;;;;;4.57;4.28;;;;;;;;;;4962370;28;20050;-80
2022/05/01 15:13:37;;;;;;;5.15;4.85;;;;;;;;;;4975291;28;20046;-80
2022/05/01 15:16:16;;;;;;;5.40;5.00;;;;;;;;;;4963848;23;20078;-81
2022/05/01 15:18:59;;;;;;;5.90;5.40;;;;;;;;;;4968358;28;20054;-81
2022/05/01 15:24:35;;;;;;;5.40;4.95;;;;;;;;;;4964775;28;20876;-82
2022/05/01 15:27:08;;;;;;;5.32;4.82;;;;;;;;;;4966018;28;20045;-82
2022/05/01 15:29:39;;;;;;;4.68;4.35;;;;;;;;;;4966077;28;20042;-82
2022/05/01 15:32:08;;;;;;;4.75;4.07;;;;;;;;;;4967125;28;20047;-82
2022/05/01 15:34:38;;;;;;;7.10;4.82;;;;;;;;;;4965716;28;20046;-83
2022/05/01 15:37:06;;;;;;;5.03;4.53;;;;;;;;;;4968927;28;20034;-82
2022/05/01 15:39:35;;;;;;;5.40;5.00;;;;;;;;;;4937385;28;20526;-82
2022/05/01 15:42:20;;;;;;;5.07;4.68;;;;;;;;;;4963319;28;20623;-82